Sky Ranch, South Dakota
Current Conditions -  °F | °C
As of 1:51 PM on Thursday 20 Nov 2014 (Local Time) from KBHK Reporting Station
Clear Clear  
Wind Chill: 24°   Ceiling: Unl
Heat Index: 32°   Visibility: 10mi
Dew Point: 22°   Wind: 9mph
Humidity: 66%   Direction: 150°SSE
Pressure: 29.87"   Gusts: NA
Location:  45.6592°N, 103.944°W
Report Text: KBHK 202051Z AUTO 15008KT 10SM CLR 00/M06 A2987 RMK AO2 SLP150 T00001056 56017
Loading
Personal Weather Stations






























Interactive Weather Map New forecast layout! Learn more

10-Day Weather Forecast

Advertisements
Track Severe Weather on mobile